Hildreth, Nebraska
Current Conditions -  °F | °C
As of 10:55 AM on Friday 28 Nov 2014 (Local Time) from KHDE Reporting Station
Clear Clear  
Wind Chill: 56°   Ceiling: Unl
Heat Index: 56°   Visibility: 10mi
Dew Point: 27°   Wind: 10mph
Humidity: 32%   Direction: 240°WSW
Pressure: 29.81"   Gusts: NA
Location:  40.34°N, 99.04°W
Report Text: KHDE 281655Z AUTO 24009KT 10SM CLR 14/M03 A2981 RMK AO2 T01361030
Loading
Personal Weather Stations






























Interactive Weather Map New forecast layout! Learn more

10-Day Weather Forecast

Advertisements
Track Severe Weather on mobile